New Richmond Regional Airport New Richmond US
ICAO: KRNH
IATA: RNH
Category: Medium
Scheduled Services: No

Elevation: 998 ft
TransAlt. 18000 ft.

Airport Communications:
MINNEAPOLIS APP/DEP:121.2
AWOS 3:120
CTAF/UNICOM:122.975

KRNH Zoom In..

Runways:

(A) RW 04 length 2050 ft width 75 ft
---- / hdg 42

(B) RW 14 length 5507 ft width 75 ft
---- / hdg 141

(C) RW 22 length 2050 ft width 75 ft
---- / hdg 222

(D) RW 32 length 5507 ft width 75 ft
---- / hdg 321

Location; KRNH
Day. 19 / Time. 03.55 Zulu
* Altimeter: 30.00
* Temperature: 18° c. 64.4°f.
* Wind from: 000° Speed 00 kn.
Dewpoint: 15° c.
Visibility: 10 Statute Miles.
Clouds: Clear (automated report).

KRNH 190355Z AUTO 00000KT 10SM CLR 18/15 A3000 RMK AO2 T01800146


Wind - Calm.

 
 
jpsmedia.com for Web Design worldairports.se 2018   terms of use